sensor_id;sensor_type;location;lat;lon;timestamp;pressure;altitude;pressure_sealevel;temperature;humidity
63019;BME280;49105;46.046;10.760;2023-05-23T00:00:53;95598.28;;;16.00;66.93
63019;BME280;49105;46.046;10.760;2023-05-23T00:03:28;95598.47;;;16.04;66.86
63019;BME280;49105;46.046;10.760;2023-05-23T00:06:04;95602.44;;;16.15;66.56
63019;BME280;49105;46.046;10.760;2023-05-23T00:08:31;95600.28;;;16.17;66.72
63019;BME280;49105;46.046;10.760;2023-05-23T00:10:59;95598.66;;;16.16;66.78
63019;BME280;49105;46.046;10.760;2023-05-23T00:13:43;95597.75;;;16.21;66.60
63019;BME280;49105;46.046;10.760;2023-05-23T00:16:12;95591.63;;;16.20;66.69
63019;BME280;49105;46.046;10.760;2023-05-23T00:18:44;95597.44;;;16.22;66.51
63019;BME280;49105;46.046;10.760;2023-05-23T00:21:15;95597.75;;;16.21;66.54
63019;BME280;49105;46.046;10.760;2023-05-23T00:23:50;95591.75;;;16.15;66.59
63019;BME280;49105;46.046;10.760;2023-05-23T00:26:27;95590.81;;;16.11;66.85
63019;BME280;49105;46.046;10.760;2023-05-23T00:29:02;95602.28;;;16.11;66.91
63019;BME280;49105;46.046;10.760;2023-05-23T00:31:38;95594.09;;;16.08;66.87
63019;BME280;49105;46.046;10.760;2023-05-23T00:34:12;95592.50;;;16.07;66.68
63019;BME280;49105;46.046;10.760;2023-05-23T00:36:38;95595.97;;;16.07;66.79
63019;BME280;49105;46.046;10.760;2023-05-23T00:42:08;95591.88;;;16.01;66.84
63019;BME280;49105;46.046;10.760;2023-05-23T00:44:36;95581.63;;;15.95;67.20
63019;BME280;49105;46.046;10.760;2023-05-23T00:47:02;95583.19;;;15.96;67.16
63019;BME280;49105;46.046;10.760;2023-05-23T00:49:39;95580.69;;;15.99;67.00
63019;BME280;49105;46.046;10.760;2023-05-23T00:52:11;95581.50;;;16.00;66.97
63019;BME280;49105;46.046;10.760;2023-05-23T00:54:40;95579.00;;;16.03;66.76
63019;BME280;49105;46.046;10.760;2023-05-23T00:57:15;95573.63;;;15.95;66.76
63019;BME280;49105;46.046;10.760;2023-05-23T00:59:41;95571.28;;;15.93;66.78
63019;BME280;49105;46.046;10.760;2023-05-23T01:02:07;95567.66;;;15.89;67.00
63019;BME280;49105;46.046;10.760;2023-05-23T01:04:32;95571.09;;;15.90;67.06
63019;BME280;49105;46.046;10.760;2023-05-23T01:06:58;95569.03;;;15.86;66.95
63019;BME280;49105;46.046;10.760;2023-05-23T01:09:30;95569.59;;;15.75;67.24
63019;BME280;49105;46.046;10.760;2023-05-23T01:28:02;95566.91;;;15.66;67.39
63019;BME280;49105;46.046;10.760;2023-05-23T01:30:33;95562.09;;;15.54;67.54
63019;BME280;49105;46.046;10.760;2023-05-23T01:33:01;95561.25;;;15.45;67.97
63019;BME280;49105;46.046;10.760;2023-05-23T01:35:36;95574.78;;;15.49;67.75
63019;BME280;49105;46.046;10.760;2023-05-23T01:38:02;95560.84;;;15.52;67.69
63019;BME280;49105;46.046;10.760;2023-05-23T01:40:39;95563.97;;;15.54;67.39
63019;BME280;49105;46.046;10.760;2023-05-23T01:43:13;95563.97;;;15.54;67.55
63019;BME280;49105;46.046;10.760;2023-05-23T01:45:39;95562.53;;;15.48;67.36
63019;BME280;49105;46.046;10.760;2023-05-23T01:48:05;95561.25;;;15.45;67.58
63019;BME280;49105;46.046;10.760;2023-05-23T01:50:43;95570.53;;;15.48;67.47
63019;BME280;49105;46.046;10.760;2023-05-23T01:53:09;95562.63;;;15.43;67.38
63019;BME280;49105;46.046;10.760;2023-05-23T01:55:36;95564.34;;;15.38;67.47
63019;BME280;49105;46.046;10.760;2023-05-23T01:58:10;95567.13;;;15.33;67.51
63019;BME280;49105;46.046;10.760;2023-05-23T02:00:36;95561.81;;;15.33;67.53
63019;BME280;49105;46.046;10.760;2023-05-23T02:03:01;95546.25;;;15.27;67.41
63019;BME280;49105;46.046;10.760;2023-05-23T02:05:32;95552.97;;;15.24;67.48
63019;BME280;49105;46.046;10.760;2023-05-23T02:07:58;95558.44;;;15.19;67.72
63019;BME280;49105;46.046;10.760;2023-05-23T02:10:23;95560.47;;;15.00;67.98
63019;BME280;49105;46.046;10.760;2023-05-23T02:12:48;95560.72;;;14.89;68.35
63019;BME280;49105;46.046;10.760;2023-05-23T02:15:23;95557.94;;;14.95;68.37
63019;BME280;49105;46.046;10.760;2023-05-23T02:17:48;95558.41;;;14.97;68.27
63019;BME280;49105;46.046;10.760;2023-05-23T02:20:22;95558.72;;;14.95;68.11
63019;BME280;49105;46.046;10.760;2023-05-23T02:22:48;95561.06;;;14.97;67.96
63019;BME280;49105;46.046;10.760;2023-05-23T02:25:19;95560.47;;;15.00;67.96
63019;BME280;49105;46.046;10.760;2023-05-23T02:27:54;95562.28;;;14.91;67.93
63019;BME280;49105;46.046;10.760;2023-05-23T02:30:25;95565.38;;;14.84;68.50
63019;BME280;49105;46.046;10.760;2023-05-23T02:32:51;95562.88;;;14.87;68.36
63019;BME280;49105;46.046;10.760;2023-05-23T02:38:01;95564.44;;;14.52;68.79
63019;BME280;49105;46.046;10.760;2023-05-23T02:40:26;95566.94;;;14.49;69.28
63019;BME280;49105;46.046;10.760;2023-05-23T02:43:00;95565.31;;;14.48;69.25
63019;BME280;49105;46.046;10.760;2023-05-23T02:45:35;95558.94;;;14.49;68.91
63019;BME280;49105;46.046;10.760;2023-05-23T02:48:00;95558.63;;;14.50;69.43
63019;BME280;49105;46.046;10.760;2023-05-23T02:50:34;95563.19;;;14.50;69.24
63019;BME280;49105;46.046;10.760;2023-05-23T02:53:00;95554.66;;;14.48;68.98
63019;BME280;49105;46.046;10.760;2023-05-23T02:55:31;95553.69;;;14.44;68.83
63019;BME280;49105;46.046;10.760;2023-05-23T02:58:05;95552.69;;;14.39;69.01
63019;BME280;49105;46.046;10.760;2023-05-23T03:00:31;95548.16;;;14.40;68.52
63019;BME280;49105;46.046;10.760;2023-05-23T03:03:08;95547.69;;;14.38;68.62
63019;BME280;49105;46.046;10.760;2023-05-23T03:05:33;95553.31;;;14.36;68.81
63019;BME280;49105;46.046;10.760;2023-05-23T03:07:59;95556.06;;;14.31;68.69
63019;BME280;49105;46.046;10.760;2023-05-23T03:10:33;95556.88;;;14.32;68.81
63019;BME280;49105;46.046;10.760;2023-05-23T03:13:07;95549.59;;;14.24;69.01
63019;BME280;49105;46.046;10.760;2023-05-23T03:15:33;95551.75;;;14.08;69.38
63019;BME280;49105;46.046;10.760;2023-05-23T03:18:10;95544.25;;;14.10;69.31
63019;BME280;49105;46.046;10.760;2023-05-23T03:20:36;95543.09;;;14.16;68.96
63019;BME280;49105;46.046;10.760;2023-05-23T03:23:10;95542.09;;;14.12;68.87
63019;BME280;49105;46.046;10.760;2023-05-23T03:25:36;95547.91;;;14.14;69.31
63019;BME280;49105;46.046;10.760;2023-05-23T03:28:10;95547.13;;;14.13;69.01
63019;BME280;49105;46.046;10.760;2023-05-23T03:30:48;95550.09;;;14.12;69.20
63019;BME280;49105;46.046;10.760;2023-05-23T03:33:13;95558.66;;;14.09;69.32
63019;BME280;49105;46.046;10.760;2023-05-23T03:35:38;95554.91;;;14.10;69.21
63019;BME280;49105;46.046;10.760;2023-05-23T03:38:11;95550.97;;;14.07;69.09
63019;BME280;49105;46.046;10.760;2023-05-23T03:40:36;95560.03;;;14.06;69.10
63019;BME280;49105;46.046;10.760;2023-05-23T03:43:02;95564.09;;;14.04;69.02
63019;BME280;49105;46.046;10.760;2023-05-23T03:45:29;95565.34;;;14.06;69.14
63019;BME280;49105;46.046;10.760;2023-05-23T03:48:04;95562.88;;;14.10;68.46
63019;BME280;49105;46.046;10.760;2023-05-23T03:50:29;95564.66;;;14.14;68.51
63019;BME280;49105;46.046;10.760;2023-05-23T03:53:04;95569.19;;;14.14;68.88
63019;BME280;49105;46.046;10.760;2023-05-23T03:55:32;95567.81;;;13.89;69.02
63019;BME280;49105;46.046;10.760;2023-05-23T03:58:07;95578.44;;;13.89;68.93
63019;BME280;49105;46.046;10.760;2023-05-23T04:00:41;95574.50;;;13.86;69.33
63019;BME280;49105;46.046;10.760;2023-05-23T04:03:16;95581.31;;;13.93;69.39
63019;BME280;49105;46.046;10.760;2023-05-23T04:05:53;95579.75;;;13.92;68.92
63019;BME280;49105;46.046;10.760;2023-05-23T04:08:18;95581.91;;;13.89;69.04
63019;BME280;49105;46.046;10.760;2023-05-23T04:10:46;95579.75;;;13.92;69.69
63019;BME280;49105;46.046;10.760;2023-05-23T04:13:23;95577.56;;;13.94;69.09
63019;BME280;49105;46.046;10.760;2023-05-23T04:15:53;95581.78;;;13.95;69.82
63019;BME280;49105;46.046;10.760;2023-05-23T04:18:21;95591.97;;;13.93;68.83
63019;BME280;49105;46.046;10.760;2023-05-23T04:20:57;95590.88;;;13.94;69.10
63019;BME280;49105;46.046;10.760;2023-05-23T04:23:23;95589.19;;;13.98;69.23
63019;BME280;49105;46.046;10.760;2023-05-23T04:26:00;95592.38;;;14.00;69.41
63019;BME280;49105;46.046;10.760;2023-05-23T04:28:37;95599.06;;;13.97;69.29
63019;BME280;49105;46.046;10.760;2023-05-23T04:31:04;95589.41;;;13.87;69.59
63019;BME280;49105;46.046;10.760;2023-05-23T04:33:29;95594.72;;;13.87;69.19
63019;BME280;49105;46.046;10.760;2023-05-23T04:35:57;95591.16;;;13.92;69.10
63019;BME280;49105;46.046;10.760;2023-05-23T04:38:23;95588.09;;;13.99;69.30
63019;BME280;49105;46.046;10.760;2023-05-23T04:40:55;95586.56;;;14.11;68.94
63019;BME280;49105;46.046;10.760;2023-05-23T04:43:30;95585.34;;;14.31;68.85
63019;BME280;49105;46.046;10.760;2023-05-23T04:46:03;95587.44;;;14.34;68.87
63019;BME280;49105;46.046;10.760;2023-05-23T04:48:29;95586.44;;;14.30;68.87
63019;BME280;49105;46.046;10.760;2023-05-23T04:50:55;95591.75;;;14.30;68.49
63019;BME280;49105;46.046;10.760;2023-05-23T04:53:21;95586.84;;;14.37;68.23
63019;BME280;49105;46.046;10.760;2023-05-23T04:55:56;95585.63;;;14.44;68.74
63019;BME280;49105;46.046;10.760;2023-05-23T04:58:27;95584.50;;;14.50;68.26
63019;BME280;49105;46.046;10.760;2023-05-23T05:00:58;95580.63;;;14.56;68.16
63019;BME280;49105;46.046;10.760;2023-05-23T05:03:33;95575.88;;;14.67;68.09
63019;BME280;49105;46.046;10.760;2023-05-23T05:06:02;95574.50;;;14.69;67.83
63019;BME280;49105;46.046;10.760;2023-05-23T05:08:33;95571.13;;;14.63;68.12
63019;BME280;49105;46.046;10.760;2023-05-23T05:11:08;95575.69;;;14.63;68.07
63019;BME280;49105;46.046;10.760;2023-05-23T05:13:42;95577.75;;;14.66;68.67
63019;BME280;49105;46.046;10.760;2023-05-23T05:16:08;95572.63;;;14.70;68.52
63019;BME280;49105;46.046;10.760;2023-05-23T05:18:42;95568.28;;;14.74;68.48
63019;BME280;49105;46.046;10.760;2023-05-23T05:21:17;95566.78;;;14.81;68.34
63019;BME280;49105;46.046;10.760;2023-05-23T05:23:51;95570.75;;;14.93;68.27
63019;BME280;49105;46.046;10.760;2023-05-23T05:26:24;95566.72;;;15.18;67.61
63019;BME280;49105;46.046;10.760;2023-05-23T05:28:50;95565.44;;;15.37;67.47
63019;BME280;49105;46.046;10.760;2023-05-23T05:31:16;95556.78;;;15.63;67.06
63019;BME280;49105;46.046;10.760;2023-05-23T05:33:51;95556.97;;;15.89;66.76
63019;BME280;49105;46.046;10.760;2023-05-23T05:36:22;95553.09;;;16.04;66.23
63019;BME280;49105;46.046;10.760;2023-05-23T05:38:56;95550.94;;;16.15;66.08
63019;BME280;49105;46.046;10.760;2023-05-23T05:41:22;95553.78;;;16.18;66.00
63019;BME280;49105;46.046;10.760;2023-05-23T05:43:47;95548.28;;;16.23;66.08
63019;BME280;49105;46.046;10.760;2023-05-23T05:46:12;95549.06;;;16.24;65.90
63019;BME280;49105;46.046;10.760;2023-05-23T05:48:41;95551.28;;;16.22;66.00
63019;BME280;49105;46.046;10.760;2023-05-23T05:51:06;95549.06;;;16.24;66.01
63019;BME280;49105;46.046;10.760;2023-05-23T05:53:37;95536.84;;;16.40;65.82
63019;BME280;49105;46.046;10.760;2023-05-23T05:56:03;95531.53;;;16.66;65.40
63019;BME280;49105;46.046;10.760;2023-05-23T05:58:37;95533.16;;;16.76;65.46
63019;BME280;49105;46.046;10.760;2023-05-23T06:01:03;95533.63;;;16.95;64.97
63019;BME280;49105;46.046;10.760;2023-05-23T06:03:29;95539.44;;;17.15;64.35
63019;BME280;49105;46.046;10.760;2023-05-23T06:05:58;95534.53;;;17.25;64.24
63019;BME280;49105;46.046;10.760;2023-05-23T06:08:31;95531.09;;;17.25;63.96
63019;BME280;49105;46.046;10.760;2023-05-23T06:10:56;95527.63;;;17.24;64.19
63019;BME280;49105;46.046;10.760;2023-05-23T06:13:28;95526.34;;;17.30;63.77
63019;BME280;49105;46.046;10.760;2023-05-23T06:16:04;95521.31;;;17.38;64.01
63019;BME280;49105;46.046;10.760;2023-05-23T06:18:33;95526.19;;;17.35;63.75
63019;BME280;49105;46.046;10.760;2023-05-23T06:21:07;95529.50;;;17.41;63.53
63019;BME280;49105;46.046;10.760;2023-05-23T06:23:39;95526.47;;;17.43;63.54
63019;BME280;49105;46.046;10.760;2023-05-23T06:26:11;95523.97;;;17.46;63.51
63019;BME280;49105;46.046;10.760;2023-05-23T06:28:37;95516.72;;;17.47;63.52
63019;BME280;49105;46.046;10.760;2023-05-23T06:31:09;95513.88;;;17.43;63.37
63019;BME280;49105;46.046;10.760;2023-05-23T06:33:46;95521.16;;;17.34;63.89
63019;BME280;49105;46.046;10.760;2023-05-23T06:36:15;95515.19;;;17.37;63.94
63019;BME280;49105;46.046;10.760;2023-05-23T06:38:41;95518.63;;;17.38;64.03
63019;BME280;49105;46.046;10.760;2023-05-23T06:41:07;95506.97;;;17.42;63.80
63019;BME280;49105;46.046;10.760;2023-05-23T06:43:44;95508.84;;;17.50;63.61
63019;BME280;49105;46.046;10.760;2023-05-23T06:46:19;95505.81;;;17.60;63.51
63019;BME280;49105;46.046;10.760;2023-05-23T06:48:51;95503.13;;;17.78;63.22
63019;BME280;49105;46.046;10.760;2023-05-23T06:51:16;95500.22;;;17.92;62.80
63019;BME280;49105;46.046;10.760;2023-05-23T06:53:41;95499.53;;;18.03;62.71
63019;BME280;49105;46.046;10.760;2023-05-23T06:56:16;95496.59;;;18.17;62.54
63019;BME280;49105;46.046;10.760;2023-05-23T06:58:47;95490.91;;;18.27;62.09
63019;BME280;49105;46.046;10.760;2023-05-23T07:01:22;95494.28;;;18.37;61.79
63019;BME280;49105;46.046;10.760;2023-05-23T07:03:48;95492.97;;;18.43;61.79
63019;BME280;49105;46.046;10.760;2023-05-23T07:09:17;95486.66;;;18.68;61.05
63019;BME280;49105;46.046;10.760;2023-05-23T07:11:48;95484.72;;;18.77;60.92
63019;BME280;49105;46.046;10.760;2023-05-23T07:14:14;95484.66;;;18.86;60.72
63019;BME280;49105;46.046;10.760;2023-05-23T07:16:40;95483.66;;;18.91;60.39
63019;BME280;49105;46.046;10.760;2023-05-23T07:19:08;95480.06;;;18.87;60.39
63019;BME280;49105;46.046;10.760;2023-05-23T07:21:40;95472.66;;;18.83;60.04
63019;BME280;49105;46.046;10.760;2023-05-23T07:24:05;95469.41;;;18.78;59.87
63019;BME280;49105;46.046;10.760;2023-05-23T07:26:36;95461.25;;;18.74;59.76
63019;BME280;49105;46.046;10.760;2023-05-23T07:29:12;95459.47;;;18.78;59.64
63019;BME280;49105;46.046;10.760;2023-05-23T07:31:43;95464.56;;;18.92;59.70
63019;BME280;49105;46.046;10.760;2023-05-23T07:34:09;95454.00;;;19.08;59.46
63019;BME280;49105;46.046;10.760;2023-05-23T07:36:43;95454.03;;;19.20;59.09
63019;BME280;49105;46.046;10.760;2023-05-23T07:39:08;95457.41;;;19.29;58.97
63019;BME280;49105;46.046;10.760;2023-05-23T07:41:37;95449.16;;;19.34;58.83
63019;BME280;49105;46.046;10.760;2023-05-23T07:44:03;95442.44;;;19.41;58.72
63019;BME280;49105;46.046;10.760;2023-05-23T07:46:28;95444.25;;;19.49;58.50
63019;BME280;49105;46.046;10.760;2023-05-23T07:49:00;95437.44;;;19.51;57.77
63019;BME280;49105;46.046;10.760;2023-05-23T07:51:35;95435.31;;;19.57;57.75
63019;BME280;49105;46.046;10.760;2023-05-23T07:54:06;95438.03;;;19.69;57.64
63019;BME280;49105;46.046;10.760;2023-05-23T07:56:32;95432.53;;;19.78;57.62
63019;BME280;49105;46.046;10.760;2023-05-23T07:58:57;95434.31;;;19.86;57.30
63019;BME280;49105;46.046;10.760;2023-05-23T08:01:22;95429.28;;;19.97;57.09
63019;BME280;49105;46.046;10.760;2023-05-23T08:03:49;95430.41;;;20.08;56.93
63019;BME280;49105;46.046;10.760;2023-05-23T08:06:15;95422.53;;;20.15;56.40
63019;BME280;49105;46.046;10.760;2023-05-23T08:08:40;95422.66;;;20.19;56.34
63019;BME280;49105;46.046;10.760;2023-05-23T08:11:13;95417.38;;;20.22;56.33
63019;BME280;49105;46.046;10.760;2023-05-23T08:13:45;95410.63;;;20.28;55.76
63019;BME280;49105;46.046;10.760;2023-05-23T08:16:19;95408.41;;;20.30;55.43
63019;BME280;49105;46.046;10.760;2023-05-23T08:18:54;95405.47;;;20.36;55.17
63019;BME280;49105;46.046;10.760;2023-05-23T08:21:29;95404.03;;;20.38;55.04
63019;BME280;49105;46.046;10.760;2023-05-23T08:23:54;95403.16;;;20.34;54.68
63019;BME280;49105;46.046;10.760;2023-05-23T08:26:28;95401.59;;;20.33;54.55
63019;BME280;49105;46.046;10.760;2023-05-23T08:29:01;95395.09;;;20.34;54.47
63019;BME280;49105;46.046;10.760;2023-05-23T08:31:28;95394.69;;;20.48;54.61
63019;BME280;49105;46.046;10.760;2023-05-23T08:33:53;95394.69;;;20.60;54.73
63019;BME280;49105;46.046;10.760;2023-05-23T08:36:19;95401.25;;;20.75;54.77
63019;BME280;49105;46.046;10.760;2023-05-23T08:38:54;95384.84;;;20.80;54.88
63019;BME280;49105;46.046;10.760;2023-05-23T08:41:25;95390.06;;;20.89;55.12
63019;BME280;49105;46.046;10.760;2023-05-23T08:46:56;95374.22;;;20.99;55.36
63019;BME280;49105;46.046;10.760;2023-05-23T08:49:26;95373.09;;;21.16;55.31
63019;BME280;49105;46.046;10.760;2023-05-23T08:51:54;95373.72;;;21.25;55.11
63019;BME280;49105;46.046;10.760;2023-05-23T08:54:34;95370.75;;;21.30;55.06
63019;BME280;49105;46.046;10.760;2023-05-23T08:57:00;95366.03;;;21.40;54.77
63019;BME280;49105;46.046;10.760;2023-05-23T08:59:32;95372.44;;;21.51;54.63
63019;BME280;49105;46.046;10.760;2023-05-23T09:01:59;95359.56;;;21.60;54.62
63019;BME280;49105;46.046;10.760;2023-05-23T09:04:24;95365.19;;;21.71;54.33
63019;BME280;49105;46.046;10.760;2023-05-23T09:06:56;95357.28;;;21.78;54.15
63019;BME280;49105;46.046;10.760;2023-05-23T09:09:31;95357.09;;;21.87;54.04
63019;BME280;49105;46.046;10.760;2023-05-23T09:11:57;95358.88;;;21.98;53.73
63019;BME280;49105;46.046;10.760;2023-05-23T09:14:23;95352.16;;;22.08;53.50
63019;BME280;49105;46.046;10.760;2023-05-23T09:16:58;95349.22;;;22.13;52.86
63019;BME280;49105;46.046;10.760;2023-05-23T09:19:24;95348.66;;;22.23;52.88
63019;BME280;49105;46.046;10.760;2023-05-23T09:21:55;95350.00;;;22.33;51.58
63019;BME280;49105;46.046;10.760;2023-05-23T09:24:21;95336.19;;;22.35;50.17
63019;BME280;49105;46.046;10.760;2023-05-23T09:26:56;95332.50;;;22.43;50.00
63019;BME280;49105;46.046;10.760;2023-05-23T09:29:31;95335.38;;;22.53;49.95
63019;BME280;49105;46.046;10.760;2023-05-23T09:32:10;95327.81;;;22.59;48.64
63019;BME280;49105;46.046;10.760;2023-05-23T09:34:40;95335.59;;;22.64;48.43
63019;BME280;49105;46.046;10.760;2023-05-23T09:37:06;95328.81;;;22.74;48.71
63019;BME280;49105;46.046;10.760;2023-05-23T09:39:38;95321.34;;;22.87;48.54
63019;BME280;49105;46.046;10.760;2023-05-23T09:42:17;95325.41;;;22.96;48.14
63019;BME280;49105;46.046;10.760;2023-05-23T09:44:43;95325.50;;;23.03;48.26
63019;BME280;49105;46.046;10.760;2023-05-23T09:47:08;95315.63;;;23.11;47.87
63019;BME280;49105;46.046;10.760;2023-05-23T09:49:43;95316.91;;;23.17;47.88
63019;BME280;49105;46.046;10.760;2023-05-23T09:52:24;95309.63;;;23.21;47.27
63019;BME280;49105;46.046;10.760;2023-05-23T09:54:56;95314.00;;;23.30;47.20
63019;BME280;49105;46.046;10.760;2023-05-23T09:57:29;95300.59;;;23.37;46.98
63019;BME280;49105;46.046;10.760;2023-05-23T10:00:02;95296.09;;;23.44;47.09
63019;BME280;49105;46.046;10.760;2023-05-23T10:05:18;95289.31;;;23.54;46.16
63019;BME280;49105;46.046;10.760;2023-05-23T10:07:57;95292.47;;;23.60;44.56
63019;BME280;49105;46.046;10.760;2023-05-23T10:10:25;95289.03;;;23.63;43.63
63019;BME280;49105;46.046;10.760;2023-05-23T10:13:03;95290.66;;;23.67;44.14
63019;BME280;49105;46.046;10.760;2023-05-23T10:15:38;95281.84;;;23.70;44.26
63019;BME280;49105;46.046;10.760;2023-05-23T10:18:13;95271.94;;;23.82;44.54
63019;BME280;49105;46.046;10.760;2023-05-23T10:23:35;95266.69;;;23.92;43.33
63019;BME280;49105;46.046;10.760;2023-05-23T10:26:04;95268.28;;;23.97;43.63
63019;BME280;49105;46.046;10.760;2023-05-23T10:28:32;95272.56;;;24.01;42.93
63019;BME280;49105;46.046;10.760;2023-05-23T10:31:10;95267.56;;;24.00;41.88
63019;BME280;49105;46.046;10.760;2023-05-23T10:33:48;95269.91;;;24.05;41.84
63019;BME280;49105;46.046;10.760;2023-05-23T10:36:21;95273.13;;;24.14;42.03
63019;BME280;49105;46.046;10.760;2023-05-23T10:39:07;95265.47;;;24.20;41.31
63019;BME280;49105;46.046;10.760;2023-05-23T10:44:29;95254.94;;;24.45;42.04
63019;BME280;49105;46.046;10.760;2023-05-23T10:46:57;95253.53;;;24.58;41.70
63019;BME280;49105;46.046;10.760;2023-05-23T10:52:12;95256.44;;;24.80;41.80
63019;BME280;49105;46.046;10.760;2023-05-23T10:54:50;95246.88;;;24.93;41.92
63019;BME280;49105;46.046;10.760;2023-05-23T10:57:25;95240.72;;;24.96;41.88
63019;BME280;49105;46.046;10.760;2023-05-23T10:59:57;95242.69;;;24.99;41.26
63019;BME280;49105;46.046;10.760;2023-05-23T11:02:34;95250.06;;;25.02;41.35
63019;BME280;49105;46.046;10.760;2023-05-23T11:13:24;95226.22;;;25.15;41.76
63019;BME280;49105;46.046;10.760;2023-05-23T11:16:22;95227.44;;;25.24;41.93
63019;BME280;49105;46.046;10.760;2023-05-23T11:18:48;95227.13;;;25.37;41.77
63019;BME280;49105;46.046;10.760;2023-05-23T11:21:13;95228.00;;;25.52;41.63
63019;BME280;49105;46.046;10.760;2023-05-23T11:23:46;95228.34;;;25.50;41.80
63019;BME280;49105;46.046;10.760;2023-05-23T11:26:31;95223.66;;;25.40;42.28
63019;BME280;49105;46.046;10.760;2023-05-23T11:29:08;95224.34;;;25.22;42.64
63019;BME280;49105;46.046;10.760;2023-05-23T11:31:46;95239.72;;;25.11;42.48
63019;BME280;49105;46.046;10.760;2023-05-23T11:34:11;95244.66;;;25.06;42.71
63019;BME280;49105;46.046;10.760;2023-05-23T11:36:43;95243.88;;;25.05;42.93
63019;BME280;49105;46.046;10.760;2023-05-23T11:39:20;95247.69;;;24.97;42.02
63019;BME280;49105;46.046;10.760;2023-05-23T11:41:58;95251.53;;;24.92;41.79
63019;BME280;49105;46.046;10.760;2023-05-23T11:44:29;95253.09;;;24.97;41.77
63019;BME280;49105;46.046;10.760;2023-05-23T11:47:04;95258.56;;;25.00;42.19
63019;BME280;49105;46.046;10.760;2023-05-23T11:49:36;95258.56;;;25.00;42.30
63019;BME280;49105;46.046;10.760;2023-05-23T11:52:14;95248.00;;;24.88;42.60
63019;BME280;49105;46.046;10.760;2023-05-23T11:57:54;95252.63;;;24.47;42.92
63019;BME280;49105;46.046;10.760;2023-05-23T12:00:29;95249.31;;;24.27;43.43
63019;BME280;49105;46.046;10.760;2023-05-23T12:03:05;95267.13;;;23.98;44.13
63019;BME280;49105;46.046;10.760;2023-05-23T12:05:43;95267.00;;;23.34;49.31
63019;BME280;49105;46.046;10.760;2023-05-23T12:08:15;95266.88;;;22.35;53.99
63019;BME280;49105;46.046;10.760;2023-05-23T12:10:56;95272.84;;;21.70;55.56
63019;BME280;49105;46.046;10.760;2023-05-23T12:13:31;95271.44;;;21.41;56.21
63019;BME280;49105;46.046;10.760;2023-05-23T12:16:06;95275.75;;;21.30;57.04
63019;BME280;49105;46.046;10.760;2023-05-23T12:18:41;95285.66;;;21.26;57.76
63019;BME280;49105;46.046;10.760;2023-05-23T12:21:06;95293.56;;;21.19;56.31
63019;BME280;49105;46.046;10.760;2023-05-23T12:23:44;95319.00;;;21.21;55.05
63019;BME280;49105;46.046;10.760;2023-05-23T12:26:09;95318.41;;;21.28;56.46
63019;BME280;49105;46.046;10.760;2023-05-23T12:28:36;95325.78;;;21.31;57.73
63019;BME280;49105;46.046;10.760;2023-05-23T12:31:11;95330.59;;;21.38;58.84
63019;BME280;49105;46.046;10.760;2023-05-23T12:33:44;95340.22;;;21.39;57.52
63019;BME280;49105;46.046;10.760;2023-05-23T12:36:15;95341.91;;;21.31;56.96
63019;BME280;49105;46.046;10.760;2023-05-23T12:38:49;95359.03;;;21.23;57.56
63019;BME280;49105;46.046;10.760;2023-05-23T12:41:15;95355.22;;;21.08;57.12
63019;BME280;49105;46.046;10.760;2023-05-23T12:43:47;95366.91;;;20.84;55.96
63019;BME280;49105;46.046;10.760;2023-05-23T12:46:19;95385.31;;;20.54;55.92
63019;BME280;49105;46.046;10.760;2023-05-23T12:48:52;95385.53;;;20.37;56.09
63019;BME280;49105;46.046;10.760;2023-05-23T12:51:17;95387.84;;;20.22;55.86
63019;BME280;49105;46.046;10.760;2023-05-23T12:53:43;95384.03;;;20.11;54.83
63019;BME280;49105;46.046;10.760;2023-05-23T12:56:08;95381.34;;;20.11;53.99
63019;BME280;49105;46.046;10.760;2023-05-23T12:58:37;95382.59;;;20.14;53.51
63019;BME280;49105;46.046;10.760;2023-05-23T13:01:08;95402.53;;;20.13;53.48
63019;BME280;49105;46.046;10.760;2023-05-23T13:03:36;95391.66;;;20.09;52.45
63019;BME280;49105;46.046;10.760;2023-05-23T13:06:08;95388.66;;;19.98;51.57
63019;BME280;49105;46.046;10.760;2023-05-23T13:08:34;95394.94;;;19.90;52.10
63019;BME280;49105;46.046;10.760;2023-05-23T13:11:05;95390.16;;;19.83;52.43
63019;BME280;49105;46.046;10.760;2023-05-23T13:13:31;95392.38;;;19.81;51.90
63019;BME280;49105;46.046;10.760;2023-05-23T13:16:06;95365.75;;;19.89;52.39
63019;BME280;49105;46.046;10.760;2023-05-23T13:21:17;95377.09;;;20.10;51.82
63019;BME280;49105;46.046;10.760;2023-05-23T13:23:52;95371.72;;;20.10;51.94
63019;BME280;49105;46.046;10.760;2023-05-23T13:26:21;95372.84;;;20.21;50.49
63019;BME280;49105;46.046;10.760;2023-05-23T13:28:52;95362.53;;;20.11;50.92
63019;BME280;49105;46.046;10.760;2023-05-23T13:34:24;95374.47;;;19.86;51.99
63019;BME280;49105;46.046;10.760;2023-05-23T13:36:50;95395.41;;;19.80;52.42
63019;BME280;49105;46.046;10.760;2023-05-23T13:39:24;95383.00;;;19.75;52.55
63019;BME280;49105;46.046;10.760;2023-05-23T13:41:56;95399.00;;;19.72;52.47
63019;BME280;49105;46.046;10.760;2023-05-23T13:44:33;95394.94;;;19.66;52.74
63019;BME280;49105;46.046;10.760;2023-05-23T13:47:12;95392.84;;;19.71;52.55
63019;BME280;49105;46.046;10.760;2023-05-23T13:49:43;95397.97;;;19.76;52.27
63019;BME280;49105;46.046;10.760;2023-05-23T13:52:15;95397.88;;;19.73;52.21
63019;BME280;49105;46.046;10.760;2023-05-23T13:54:40;95407.16;;;19.75;52.40
63019;BME280;49105;46.046;10.760;2023-05-23T13:57:05;95400.78;;;19.80;52.26
63019;BME280;49105;46.046;10.760;2023-05-23T13:59:43;95413.19;;;19.72;52.31
63019;BME280;49105;46.046;10.760;2023-05-23T14:02:18;95419.22;;;19.81;52.35
63019;BME280;49105;46.046;10.760;2023-05-23T14:04:49;95424.59;;;19.81;52.31